createdAt,value
2019-03-16T00:01:27.059Z,99523.66
2019-03-16T00:03:54.077Z,99518.69
2019-03-16T00:06:20.810Z,99528.37
2019-03-16T00:08:47.676Z,99541.11
2019-03-16T00:11:14.467Z,99546.61
2019-03-16T00:13:41.106Z,99563.91
2019-03-16T00:16:07.903Z,99566.27
2019-03-16T00:18:34.646Z,99560.80
2019-03-16T00:21:01.587Z,99549.97
2019-03-16T00:23:28.464Z,99568.39
2019-03-16T00:25:55.208Z,99564.65
2019-03-16T00:28:22.094Z,99584.67
2019-03-16T00:30:48.884Z,99593.38
2019-03-16T00:33:15.626Z,99585.80
2019-03-16T00:35:42.367Z,99593.86
2019-03-16T00:38:09.304Z,99592.95
2019-03-16T00:40:36.062Z,99607.48
2019-03-16T00:43:02.895Z,99590.48
2019-03-16T00:45:29.784Z,99597.54
2019-03-16T00:47:56.801Z,99608.17
2019-03-16T00:50:23.539Z,99609.72
2019-03-16T00:52:50.335Z,99610.68
2019-03-16T00:55:17.097Z,99624.20
2019-03-16T00:57:43.834Z,99630.02
2019-03-16T01:00:30.346Z,99630.52
2019-03-16T01:02:56.989Z,99620.41
2019-03-16T01:05:23.731Z,99620.89
2019-03-16T01:07:50.601Z,99644.77
2019-03-16T01:10:17.335Z,99626.81
2019-03-16T01:12:44.141Z,99630.48
2019-03-16T01:15:11.046Z,99632.59
2019-03-16T01:17:37.794Z,99645.73
2019-03-16T01:20:04.889Z,99635.06
2019-03-16T01:22:31.790Z,99639.53
2019-03-16T01:24:58.535Z,99655.63
2019-03-16T01:27:25.279Z,99642.63
2019-03-16T01:29:52.153Z,99642.63
2019-03-16T01:32:19.175Z,99659.21
2019-03-16T01:34:46.247Z,99659.11
2019-03-16T01:37:13.153Z,99663.20
2019-03-16T01:39:39.882Z,99660.17
2019-03-16T01:42:06.612Z,99661.89
2019-03-16T01:44:33.477Z,99668.59
2019-03-16T01:47:00.404Z,99685.09
2019-03-16T01:49:27.097Z,99682.48
2019-03-16T01:51:54.472Z,99682.25
2019-03-16T01:54:21.504Z,99695.39
2019-03-16T01:56:48.242Z,99694.98
2019-03-16T01:59:14.946Z,99697.23
2019-03-16T02:01:41.705Z,99696.22
2019-03-16T02:04:08.454Z,99701.95
2019-03-16T02:06:35.251Z,99700.97
2019-03-16T02:09:02.283Z,99701.83
2019-03-16T02:11:29.015Z,99696.00
2019-03-16T02:13:55.927Z,99690.30
2019-03-16T02:16:22.939Z,99705.56
2019-03-16T02:18:49.679Z,99708.62
2019-03-16T02:21:16.495Z,99720.48
2019-03-16T02:23:43.257Z,99716.43
2019-03-16T02:26:10.101Z,99709.09
2019-03-16T02:28:36.910Z,99722.73
2019-03-16T02:31:03.750Z,99729.56
2019-03-16T02:33:30.486Z,99733.52
2019-03-16T02:35:57.323Z,99731.47
2019-03-16T02:38:24.150Z,99738.19
2019-03-16T02:40:50.889Z,99729.69
2019-03-16T02:43:17.708Z,99738.06
2019-03-16T02:45:44.460Z,99744.30
2019-03-16T02:48:11.200Z,99754.84
2019-03-16T02:50:38.081Z,99757.39
2019-03-16T02:53:04.823Z,99756.18
2019-03-16T02:55:31.570Z,99769.57
2019-03-16T02:57:59.119Z,99773.97
2019-03-16T03:00:26.030Z,99774.91
2019-03-16T03:02:52.797Z,99776.16
2019-03-16T03:05:19.667Z,99778.77
2019-03-16T03:07:46.562Z,99790.14
2019-03-16T03:10:13.428Z,99782.75
2019-03-16T03:12:40.230Z,99798.52
2019-03-16T03:15:19.955Z,99801.02
2019-03-16T03:17:47.151Z,99784.47
2019-03-16T03:20:14.285Z,99800.59
2019-03-16T03:22:41.362Z,99795.48
2019-03-16T03:25:08.706Z,99809.02
2019-03-16T03:27:35.830Z,99802.02
2019-03-16T03:30:03.133Z,99792.34
2019-03-16T03:32:30.337Z,99788.03
2019-03-16T03:34:57.803Z,99814.91
2019-03-16T03:37:24.847Z,99821.83
2019-03-16T03:39:52.232Z,99810.55
2019-03-16T03:42:19.441Z,99818.53
2019-03-16T03:44:46.560Z,99833.81
2019-03-16T03:47:13.766Z,99825.98
2019-03-16T03:49:40.954Z,99830.34
2019-03-16T03:52:08.102Z,99835.75
2019-03-16T03:54:35.200Z,99835.75
2019-03-16T03:57:02.261Z,99835.75
2019-03-16T03:59:29.326Z,99816.63
2019-03-16T04:01:57.077Z,99841.17
2019-03-16T04:04:24.175Z,99845.50
2019-03-16T04:06:51.626Z,99863.37
2019-03-16T04:09:39.955Z,99866.34
2019-03-16T04:12:06.698Z,99868.52
2019-03-16T04:14:33.447Z,99881.60
2019-03-16T04:17:00.274Z,99871.91
2019-03-16T04:19:27.141Z,99878.72
2019-03-16T04:21:53.889Z,99881.94
2019-03-16T04:24:20.701Z,99882.02
2019-03-16T04:26:47.477Z,99889.36
2019-03-16T04:29:14.317Z,99891.16
2019-03-16T04:31:41.021Z,99892.85
2019-03-16T04:34:07.781Z,99902.50
2019-03-16T04:36:34.492Z,99890.38
2019-03-16T04:39:01.357Z,99906.02
2019-03-16T04:41:28.095Z,99899.05
2019-03-16T04:43:54.818Z,99916.07
2019-03-16T04:46:21.898Z,99913.41
2019-03-16T04:48:48.637Z,99919.13
2019-03-16T04:51:15.650Z,99916.59
2019-03-16T04:53:42.518Z,99924.74
2019-03-16T04:56:09.259Z,99922.97
2019-03-16T04:58:36.366Z,99928.06
2019-03-16T05:01:03.589Z,99935.13
2019-03-16T05:03:30.235Z,99928.19
2019-03-16T05:05:57.088Z,99936.87
2019-03-16T05:08:23.995Z,99935.91
2019-03-16T05:10:50.741Z,99934.35
2019-03-16T05:13:37.390Z,99939.95
2019-03-16T05:16:04.138Z,99933.89
2019-03-16T05:18:30.937Z,99936.92
2019-03-16T05:20:58.106Z,99940.87
2019-03-16T05:23:24.747Z,99944.27
2019-03-16T05:25:51.487Z,99944.82
2019-03-16T05:28:18.320Z,99952.59
2019-03-16T05:30:45.000Z,99957.79
2019-03-16T05:33:11.734Z,99962.57
2019-03-16T05:35:38.607Z,99969.98
2019-03-16T05:38:05.722Z,99961.69
2019-03-16T05:40:32.555Z,99969.56
2019-03-16T05:42:59.458Z,99975.23
2019-03-16T05:45:26.573Z,99971.63
2019-03-16T05:47:53.562Z,99988.67
2019-03-16T05:50:20.892Z,99999.04
2019-03-16T05:52:47.642Z,99993.84
2019-03-16T05:55:14.412Z,99993.75
2019-03-16T05:57:43.561Z,99996.36
2019-03-16T06:00:10.717Z,100001.14
2019-03-16T06:02:37.721Z,100014.15
2019-03-16T06:05:10.410Z,100014.55
2019-03-16T06:07:33.920Z,100018.45
2019-03-16T06:10:01.815Z,100018.34
2019-03-16T06:12:29.179Z,100026.23
2019-03-16T06:14:56.337Z,100022.15
2019-03-16T06:17:23.435Z,100037.30
2019-03-16T06:19:50.700Z,100035.47
2019-03-16T06:22:17.760Z,100039.26
2019-03-16T06:24:44.821Z,100043.50
2019-03-16T06:27:11.968Z,100044.65
2019-03-16T06:29:39.076Z,100052.45
2019-03-16T06:32:06.156Z,100054.20
2019-03-16T06:34:33.347Z,100049.67
2019-03-16T06:37:00.491Z,100061.81
2019-03-16T06:39:27.560Z,100060.53
2019-03-16T06:41:54.737Z,100076.56
2019-03-16T06:44:21.815Z,100073.38
2019-03-16T06:46:49.233Z,100074.13
2019-03-16T06:49:16.418Z,100081.87
2019-03-16T06:51:43.494Z,100079.56
2019-03-16T06:54:10.541Z,100077.73
2019-03-16T06:56:38.024Z,100087.30
2019-03-16T06:59:05.090Z,100086.36
2019-03-16T07:01:32.221Z,100091.82
2019-03-16T07:03:59.435Z,100095.61
2019-03-16T07:06:26.491Z,100090.50
2019-03-16T07:08:53.548Z,100097.77
2019-03-16T07:11:39.852Z,100100.78
2019-03-16T07:14:06.608Z,100108.36
2019-03-16T07:16:33.354Z,100104.40
2019-03-16T07:19:00.533Z,100109.14
2019-03-16T07:21:39.922Z,100122.36
2019-03-16T07:24:06.833Z,100108.33
2019-03-16T07:26:33.965Z,100113.17
2019-03-16T07:29:00.848Z,100115.70
2019-03-16T07:31:27.665Z,100110.38
2019-03-16T07:33:54.409Z,100116.57
2019-03-16T07:36:21.148Z,100122.83
2019-03-16T07:38:48.024Z,100127.75
2019-03-16T07:41:15.401Z,100129.23
2019-03-16T07:43:42.278Z,100136.73
2019-03-16T07:46:28.725Z,100138.10
2019-03-16T07:48:55.459Z,100138.25
2019-03-16T07:51:22.232Z,100137.17
2019-03-16T07:53:49.033Z,100142.35
2019-03-16T07:56:15.761Z,100141.05
2019-03-16T07:58:42.495Z,100147.98
2019-03-16T08:01:09.307Z,100146.06
2019-03-16T08:03:36.392Z,100148.63
2019-03-16T08:06:03.351Z,100143.64
2019-03-16T08:08:30.161Z,100151.30
2019-03-16T08:10:56.909Z,100155.69
2019-03-16T08:13:23.667Z,100164.09
2019-03-16T08:15:50.530Z,100152.45
2019-03-16T08:18:17.159Z,100148.59
2019-03-16T08:20:44.228Z,100154.12
2019-03-16T08:23:10.967Z,100157.22
2019-03-16T08:25:37.615Z,100159.75
2019-03-16T08:28:04.749Z,100175.34
2019-03-16T08:30:31.656Z,100177.94
2019-03-16T08:32:58.391Z,100182.48
2019-03-16T08:35:25.116Z,100183.86
2019-03-16T08:37:51.985Z,100181.08
2019-03-16T08:40:18.719Z,100192.87
2019-03-16T08:42:45.464Z,100190.52
2019-03-16T08:45:12.395Z,100194.13
2019-03-16T08:47:39.168Z,100197.13
2019-03-16T08:50:06.010Z,100198.83
2019-03-16T08:52:32.808Z,100198.91
2019-03-16T08:54:59.869Z,100189.37
2019-03-16T08:57:26.602Z,100196.81
2019-03-16T08:59:53.412Z,100186.80
2019-03-16T09:02:20.143Z,100187.18
2019-03-16T09:04:47.054Z,100188.56
2019-03-16T09:07:13.950Z,100193.77
2019-03-16T09:10:00.599Z,100183.20
2019-03-16T09:12:27.382Z,100182.64
2019-03-16T09:14:54.130Z,100188.61
2019-03-16T09:17:20.766Z,100180.02
2019-03-16T09:19:47.599Z,100178.92
2019-03-16T09:22:14.476Z,100183.88
2019-03-16T09:24:41.566Z,100183.44
2019-03-16T09:27:08.266Z,100181.59
2019-03-16T09:29:35.373Z,100194.92
2019-03-16T09:32:02.469Z,100189.48
2019-03-16T09:34:29.152Z,100197.81
2019-03-16T09:36:55.924Z,100195.84
2019-03-16T09:39:23.175Z,100205.09
2019-03-16T09:41:50.051Z,100197.81
2019-03-16T09:44:16.783Z,100215.59
2019-03-16T09:46:43.533Z,100214.88
2019-03-16T09:49:10.352Z,100209.45
2019-03-16T09:51:37.457Z,100216.17
2019-03-16T09:54:04.608Z,100216.14
2019-03-16T09:56:31.502Z,100214.95
2019-03-16T09:58:58.426Z,100212.84
2019-03-16T10:01:25.271Z,100219.50
2019-03-16T10:03:52.268Z,100219.16
2019-03-16T10:06:19.103Z,100216.17
2019-03-16T10:08:46.152Z,100207.59
2019-03-16T10:11:12.966Z,100213.27
2019-03-16T10:13:39.778Z,100208.20
2019-03-16T10:16:06.514Z,100214.91
2019-03-16T10:18:33.371Z,100200.95
2019-03-16T10:21:00.280Z,100206.42
2019-03-16T10:23:27.109Z,100205.00
2019-03-16T10:26:06.848Z,100202.84
2019-03-16T10:28:43.143Z,100200.58
2019-03-16T10:31:02.789Z,100200.50
2019-03-16T10:33:29.496Z,100196.83
2019-03-16T10:35:56.121Z,100198.50
2019-03-16T10:38:22.856Z,100205.03
2019-03-16T10:40:49.928Z,100200.58
2019-03-16T10:43:16.661Z,100196.03
2019-03-16T10:46:03.147Z,100198.64
2019-03-16T10:48:30.019Z,100200.19
2019-03-16T10:50:56.886Z,100198.69
2019-03-16T10:53:24.026Z,100204.19
2019-03-16T10:55:50.912Z,100203.66
2019-03-16T10:58:17.704Z,100219.70
2019-03-16T11:00:44.697Z,100217.91
2019-03-16T11:03:11.427Z,100219.87
2019-03-16T11:05:38.459Z,100217.05
2019-03-16T11:08:05.270Z,100227.84
2019-03-16T11:10:32.013Z,100225.50
2019-03-16T11:12:58.666Z,100225.73
2019-03-16T11:15:25.769Z,100229.97
2019-03-16T11:17:52.831Z,100238.89
2019-03-16T11:20:19.712Z,100238.44
2019-03-16T11:22:47.262Z,100238.84
2019-03-16T11:25:14.367Z,100233.56
2019-03-16T11:27:41.069Z,100237.23
2019-03-16T11:30:09.216Z,100223.81
2019-03-16T11:32:36.236Z,100231.22
2019-03-16T11:35:03.245Z,100217.22
2019-03-16T11:37:29.940Z,100223.77
2019-03-16T11:40:06.764Z,100223.80
2019-03-16T11:42:33.902Z,100231.16
2019-03-16T11:45:00.971Z,100235.08
2019-03-16T11:47:28.354Z,100234.69
2019-03-16T11:49:55.574Z,100228.28
2019-03-16T11:52:22.939Z,100230.44
2019-03-16T11:54:50.028Z,100230.91
2019-03-16T11:57:18.708Z,100233.52
2019-03-16T11:59:45.786Z,100227.88
2019-03-16T12:02:12.881Z,100223.19
2019-03-16T12:04:40.036Z,100228.77
2019-03-16T12:07:07.428Z,100222.97
2019-03-16T12:09:34.499Z,100219.16
2019-03-16T12:12:02.654Z,100205.24
2019-03-16T12:14:29.724Z,100209.65
2019-03-16T12:16:57.193Z,100213.67
2019-03-16T12:19:24.366Z,100216.94
2019-03-16T12:21:51.452Z,100219.47
2019-03-16T12:24:18.609Z,100210.17
2019-03-16T12:26:45.855Z,100215.81
2019-03-16T12:29:13.284Z,100199.24
2019-03-16T12:31:40.380Z,100201.30
2019-03-16T12:34:27.033Z,100192.63
2019-03-16T12:36:54.111Z,100195.97
2019-03-16T12:39:21.613Z,100208.05
2019-03-16T12:41:48.881Z,100200.90
2019-03-16T12:44:15.921Z,100197.67
2019-03-16T12:46:43.010Z,100197.71
2019-03-16T12:49:10.533Z,100192.04
2019-03-16T12:51:37.968Z,100190.04
2019-03-16T12:54:05.398Z,100184.39
2019-03-16T12:56:32.640Z,100188.31
2019-03-16T12:59:09.850Z,100179.38
2019-03-16T13:01:29.107Z,100180.62
2019-03-16T13:03:56.494Z,100173.03
2019-03-16T13:06:23.594Z,100176.03
2019-03-16T13:08:50.875Z,100169.75
2019-03-16T13:11:20.446Z,100169.55
2019-03-16T13:13:47.530Z,100173.22
2019-03-16T13:16:37.107Z,100165.97
2019-03-16T13:19:03.610Z,100168.20
2019-03-16T13:21:31.491Z,100171.25
2019-03-16T13:23:58.698Z,100164.86
2019-03-16T13:26:25.725Z,100166.15
2019-03-16T13:28:52.765Z,100156.92
2019-03-16T13:31:20.026Z,100151.77
2019-03-16T13:34:06.826Z,100139.78
2019-03-16T13:36:34.224Z,100138.34
2019-03-16T13:39:01.319Z,100144.58
2019-03-16T13:46:48.456Z,100118.72
2019-03-16T13:49:15.964Z,100112.19
2019-03-16T13:51:43.059Z,100110.46
2019-03-16T13:54:10.373Z,100102.11
2019-03-16T13:56:37.764Z,100086.62
2019-03-16T13:59:04.837Z,100088.69
2019-03-16T14:01:33.997Z,100075.22
2019-03-16T14:04:03.048Z,100072.69
2019-03-16T14:06:30.216Z,100067.55
2019-03-16T14:08:57.514Z,100059.20
2019-03-16T14:11:25.183Z,100057.75
2019-03-16T14:13:52.403Z,100060.05
2019-03-16T14:16:20.115Z,100061.02
2019-03-16T14:18:47.332Z,100056.20
2019-03-16T14:21:14.840Z,100049.21
2019-03-16T14:23:42.096Z,100050.26
2019-03-16T14:26:09.314Z,100049.11
2019-03-16T14:28:36.680Z,100037.52
2019-03-16T14:31:04.165Z,100028.66
2019-03-16T14:33:31.948Z,100024.55
2019-03-16T14:35:59.551Z,100015.88
2019-03-16T14:38:26.588Z,100017.60
2019-03-16T14:41:13.623Z,100010.23
2019-03-16T14:43:40.883Z,100002.25
2019-03-16T14:46:08.070Z,100002.00
2019-03-16T14:48:35.294Z,99994.58
2019-03-16T14:51:24.703Z,99990.90
2019-03-16T14:53:51.218Z,99982.49
2019-03-16T14:56:17.976Z,99980.75
2019-03-16T14:58:44.848Z,99984.11
2019-03-16T15:01:13.274Z,99986.70
2019-03-16T15:03:40.878Z,99980.16
2019-03-16T15:06:07.875Z,99973.38
2019-03-16T15:08:34.870Z,99964.27
2019-03-16T15:11:02.044Z,99961.52
2019-03-16T15:13:29.555Z,99959.38
2019-03-16T15:16:15.912Z,99956.78
2019-03-16T15:18:44.961Z,99956.86
2019-03-16T15:21:11.694Z,99953.34
2019-03-16T15:23:38.643Z,99946.22
2019-03-16T15:26:05.279Z,99941.64
2019-03-16T15:28:32.097Z,99948.56
2019-03-16T15:30:59.167Z,99947.14
2019-03-16T15:33:25.899Z,99946.23
2019-03-16T15:35:52.790Z,99937.09
2019-03-16T15:38:19.693Z,99932.20
2019-03-16T15:40:46.721Z,99929.79
2019-03-16T15:43:13.583Z,99924.25
2019-03-16T15:46:00.366Z,99911.02
2019-03-16T15:48:27.461Z,99895.62
2019-03-16T15:50:54.863Z,99893.92
2019-03-16T15:53:22.012Z,99901.90
2019-03-16T15:55:49.395Z,99918.60
2019-03-16T15:58:16.479Z,99915.92
2019-03-16T16:00:43.640Z,99919.81
2019-03-16T16:03:11.383Z,99914.94
2019-03-16T16:05:38.464Z,99904.08
2019-03-16T16:08:05.682Z,99892.59
2019-03-16T16:10:32.866Z,99883.50
2019-03-16T16:13:00.339Z,99890.27
2019-03-16T16:15:27.494Z,99895.95
2019-03-16T16:17:54.543Z,99896.19
2019-03-16T16:20:22.130Z,99896.31
2019-03-16T16:22:49.453Z,99894.70
2019-03-16T16:25:16.546Z,99887.71
2019-03-16T16:27:43.788Z,99892.85
2019-03-16T16:30:11.716Z,99887.63
2019-03-16T16:32:39.109Z,99878.38
2019-03-16T16:35:06.411Z,99876.92
2019-03-16T16:37:33.596Z,99873.81
2019-03-16T16:40:00.813Z,99873.33
2019-03-16T16:42:28.106Z,99868.08
2019-03-16T16:44:55.670Z,99870.20
2019-03-16T16:47:22.801Z,99871.14
2019-03-16T16:49:49.967Z,99868.30
2019-03-16T16:52:17.121Z,99868.78
2019-03-16T16:54:44.236Z,99861.36
2019-03-16T16:57:11.721Z,99862.55
2019-03-16T16:59:39.256Z,99854.63
2019-03-16T17:02:06.355Z,99854.73
2019-03-16T17:04:33.458Z,99855.05
2019-03-16T17:07:00.719Z,99855.95
2019-03-16T17:09:27.882Z,99851.06
2019-03-16T17:11:54.992Z,99846.67
2019-03-16T17:14:22.148Z,99847.23
2019-03-16T17:16:49.238Z,99848.84
2019-03-16T17:19:16.346Z,99846.16
2019-03-16T17:21:44.015Z,99842.66
2019-03-16T17:24:11.443Z,99838.33
2019-03-16T17:26:39.033Z,99833.39
2019-03-16T17:29:06.382Z,99834.73
2019-03-16T17:31:42.109Z,99834.55
2019-03-16T17:34:02.591Z,99836.48
2019-03-16T17:36:29.931Z,99833.22
2019-03-16T17:38:56.821Z,99830.21
2019-03-16T17:41:23.562Z,99830.95
2019-03-16T17:43:50.708Z,99834.84
2019-03-16T17:46:17.449Z,99833.63
2019-03-16T17:48:44.331Z,99829.58
2019-03-16T17:51:11.182Z,99830.00
2019-03-16T17:53:38.235Z,99833.35
2019-03-16T17:56:25.159Z,99827.33
2019-03-16T17:58:52.679Z,99831.48
2019-03-16T18:01:19.790Z,99833.10
2019-03-16T18:03:47.011Z,99828.73
2019-03-16T18:06:14.538Z,99832.66
2019-03-16T18:08:41.637Z,99838.14
2019-03-16T18:11:08.880Z,99834.16
2019-03-16T18:13:36.303Z,99838.95
2019-03-16T18:16:03.685Z,99838.78
2019-03-16T18:18:31.028Z,99830.84
2019-03-16T18:20:58.139Z,99822.23
2019-03-16T18:23:25.254Z,99813.35
2019-03-16T18:25:52.679Z,99816.28
2019-03-16T18:28:19.800Z,99826.72
2019-03-16T18:30:47.074Z,99821.73
2019-03-16T18:33:14.404Z,99823.87
2019-03-16T18:35:41.520Z,99810.61
2019-03-16T18:38:08.641Z,99818.19
2019-03-16T18:40:36.244Z,99812.58
2019-03-16T18:43:03.412Z,99810.75
2019-03-16T18:45:30.833Z,99814.29
2019-03-16T18:47:58.434Z,99811.97
2019-03-16T18:50:25.542Z,99811.38
2019-03-16T18:52:52.847Z,99805.17
2019-03-16T18:55:20.297Z,99813.98
2019-03-16T18:57:47.387Z,99814.72
2019-03-16T19:00:14.457Z,99813.83
2019-03-16T19:02:41.657Z,99814.88
2019-03-16T19:05:08.783Z,99817.08
2019-03-16T19:07:36.442Z,99812.51
2019-03-16T19:10:04.125Z,99814.19
2019-03-16T19:12:31.668Z,99806.37
2019-03-16T19:14:58.808Z,99795.77
2019-03-16T19:17:25.975Z,99806.80
2019-03-16T19:19:53.118Z,99795.02
2019-03-16T19:22:20.207Z,99790.05
2019-03-16T19:24:47.355Z,99797.51
2019-03-16T19:27:14.473Z,99812.19
2019-03-16T19:29:41.631Z,99805.27
2019-03-16T19:32:08.870Z,99804.69
2019-03-16T19:34:35.984Z,99805.43
2019-03-16T19:39:57.506Z,99802.92
2019-03-16T19:42:37.079Z,99789.90
2019-03-16T19:45:04.486Z,99771.55
2019-03-16T19:47:31.298Z,99786.05
2019-03-16T19:49:58.610Z,99789.58
2019-03-16T19:52:26.416Z,99794.98
2019-03-16T19:54:53.641Z,99801.99
2019-03-16T19:57:20.815Z,99804.87
2019-03-16T19:59:47.984Z,99800.03
2019-03-16T20:02:14.727Z,99800.23
2019-03-16T20:04:41.593Z,99794.32
2019-03-16T20:07:18.773Z,99793.34
2019-03-16T20:09:38.085Z,99796.73
2019-03-16T20:12:24.470Z,99793.16
2019-03-16T20:14:51.413Z,99782.50
2019-03-16T20:17:19.210Z,99786.16
2019-03-16T20:19:46.242Z,99782.01
2019-03-16T20:22:13.770Z,99778.07
2019-03-16T20:24:40.403Z,99779.87
2019-03-16T20:27:08.666Z,99778.89
2019-03-16T20:29:36.038Z,99784.59
2019-03-16T20:32:02.936Z,99788.16
2019-03-16T20:34:32.110Z,99783.73
2019-03-16T20:36:58.861Z,99779.34
2019-03-16T20:39:25.588Z,99784.13
2019-03-16T20:41:52.362Z,99780.24
2019-03-16T20:44:19.546Z,99783.16
2019-03-16T20:46:46.505Z,99795.94
2019-03-16T20:49:15.046Z,99788.48
2019-03-16T20:51:41.904Z,99787.16
2019-03-16T20:54:08.826Z,99784.13
2019-03-16T20:56:35.736Z,99781.60
2019-03-16T20:59:02.842Z,99792.20
2019-03-16T21:01:29.611Z,99796.19
2019-03-16T21:03:58.435Z,99794.73
2019-03-16T21:06:25.698Z,99792.39
2019-03-16T21:09:02.595Z,99784.33
2019-03-16T21:11:22.238Z,99786.55
2019-03-16T21:13:49.521Z,99781.30
2019-03-16T21:16:17.459Z,99784.42
2019-03-16T21:18:44.750Z,99782.11
2019-03-16T21:21:12.477Z,99785.49
2019-03-16T21:23:59.444Z,99784.42
2019-03-16T21:26:26.260Z,99777.34
2019-03-16T21:28:53.050Z,99785.09
2019-03-16T21:31:20.258Z,99779.23
2019-03-16T21:33:47.395Z,99778.12
2019-03-16T21:36:14.850Z,99773.53
2019-03-16T21:38:43.841Z,99770.74
2019-03-16T21:41:10.745Z,99770.41
2019-03-16T21:43:39.065Z,99770.45
2019-03-16T21:46:06.271Z,99771.77
2019-03-16T21:48:34.506Z,99762.54
2019-03-16T21:51:01.451Z,99768.48
2019-03-16T21:53:28.659Z,99764.89
2019-03-16T21:55:55.665Z,99767.38
2019-03-16T21:58:22.983Z,99762.54
2019-03-16T22:00:50.934Z,99761.32
2019-03-16T22:03:17.649Z,99768.46
2019-03-16T22:05:44.366Z,99768.33
2019-03-16T22:08:11.154Z,99776.16
2019-03-16T22:10:38.017Z,99771.77
2019-03-16T22:13:05.133Z,99772.17
2019-03-16T22:15:31.982Z,99766.56
2019-03-16T22:17:58.603Z,99771.45
2019-03-16T22:20:25.485Z,99762.27
2019-03-16T22:22:52.349Z,99761.73
2019-03-16T22:25:19.099Z,99758.50
2019-03-16T22:27:46.112Z,99759.41
2019-03-16T22:30:13.337Z,99754.24
2019-03-16T22:32:40.349Z,99753.00
2019-03-16T22:35:09.117Z,99753.70
2019-03-16T22:37:36.156Z,99745.11
2019-03-16T22:40:03.452Z,99753.31
2019-03-16T22:42:31.146Z,99752.33
2019-03-16T22:44:58.290Z,99754.95
2019-03-16T22:47:25.463Z,99747.33
2019-03-16T22:49:52.774Z,99758.39
2019-03-16T22:52:19.904Z,99746.47
2019-03-16T22:54:47.015Z,99751.04
2019-03-16T22:57:14.310Z,99753.80
2019-03-16T22:59:41.918Z,99758.39
2019-03-16T23:02:09.229Z,99750.70
2019-03-16T23:04:36.654Z,99749.50
2019-03-16T23:07:03.868Z,99747.25
2019-03-16T23:09:30.973Z,99752.53
2019-03-16T23:11:58.102Z,99747.78
2019-03-16T23:14:25.447Z,99751.72
2019-03-16T23:16:52.565Z,99740.89
2019-03-16T23:19:19.986Z,99747.58
2019-03-16T23:21:47.709Z,99744.01
2019-03-16T23:24:14.794Z,99747.90
2019-03-16T23:26:42.295Z,99740.94
2019-03-16T23:29:09.465Z,99746.39
2019-03-16T23:31:37.024Z,99745.98
2019-03-16T23:34:04.132Z,99750.20
2019-03-16T23:36:31.352Z,99749.09
2019-03-16T23:38:58.475Z,99742.91
2019-03-16T23:41:25.595Z,99734.06
2019-03-16T23:43:53.316Z,99735.53
2019-03-16T23:46:20.449Z,99735.21
2019-03-16T23:49:00.317Z,99729.17
2019-03-16T23:51:27.061Z,99731.52
2019-03-16T23:53:53.807Z,99725.00
2019-03-16T23:56:20.596Z,99720.25
2019-03-16T23:58:47.343Z,99723.21
